createdAt,value
2022-08-11T00:07:47.821Z,62.00
2022-08-11T00:12:56.362Z,62.40
2022-08-11T00:23:08.964Z,62.50
2022-08-11T00:33:41.208Z,63.00
2022-08-11T00:38:48.265Z,63.20
2022-08-11T00:46:38.034Z,63.80
2022-08-11T00:49:20.728Z,63.70
2022-08-11T00:57:56.149Z,64.20
2022-08-11T01:22:31.226Z,65.90
2022-08-11T01:25:46.237Z,66.20
2022-08-11T01:29:09.710Z,71.40
2022-08-11T01:37:29.397Z,65.60
2022-08-11T01:45:53.353Z,65.00
2022-08-11T01:53:57.738Z,65.00
2022-08-11T01:59:21.057Z,65.80
2022-08-11T02:04:36.500Z,66.10
2022-08-11T02:07:18.088Z,66.40
2022-08-11T02:10:00.589Z,66.60
2022-08-11T02:15:34.544Z,67.10
2022-08-11T02:24:06.112Z,68.00
2022-08-11T02:26:42.182Z,68.40
2022-08-11T02:29:24.731Z,68.50
2022-08-11T02:32:29.873Z,68.70
2022-08-11T02:37:48.661Z,69.30
2022-08-11T02:43:04.874Z,69.90
2022-08-11T02:45:47.370Z,70.10
2022-08-11T02:48:39.522Z,70.40
2022-08-11T02:54:00.051Z,70.70
2022-08-11T02:56:44.745Z,71.00
2022-08-11T02:59:38.926Z,71.30
2022-08-11T03:02:19.216Z,71.80
2022-08-11T03:07:31.284Z,72.40
2022-08-11T03:15:46.696Z,73.30
2022-08-11T03:26:11.934Z,74.10
2022-08-11T03:28:50.711Z,74.10
2022-08-11T03:31:26.898Z,74.40
2022-08-11T03:34:07.023Z,74.50
2022-08-11T03:37:17.646Z,75.00
2022-08-11T03:40:00.471Z,75.60
2022-08-11T03:45:10.217Z,76.20
2022-08-11T03:47:55.938Z,76.70
2022-08-11T03:56:39.737Z,77.90
2022-08-11T03:59:43.944Z,78.30
2022-08-11T04:02:49.801Z,78.90
2022-08-11T04:05:39.386Z,79.50
2022-08-11T04:08:50.016Z,79.90
2022-08-11T04:11:49.643Z,80.00
2022-08-11T04:15:01.188Z,80.60
2022-08-11T04:29:17.242Z,80.90
2022-08-11T04:43:24.249Z,78.80
2022-08-11T04:49:10.284Z,77.80
2022-08-11T04:52:17.677Z,94.10
2022-08-11T04:55:14.566Z,78.00
2022-08-11T04:58:05.148Z,94.10
2022-08-11T05:00:59.972Z,94.10
2022-08-11T05:04:06.670Z,77.00
2022-08-11T05:07:14.407Z,93.90
2022-08-11T05:10:14.962Z,88.20
2022-08-11T05:12:49.107Z,93.40
2022-08-11T05:15:48.314Z,76.30
2022-08-11T05:18:38.361Z,93.30
2022-08-11T05:21:25.590Z,76.10
2022-08-11T05:24:13.595Z,93.10
2022-08-11T05:27:02.582Z,75.70
2022-08-11T05:29:58.318Z,75.70
2022-08-11T05:32:48.974Z,75.00
2022-08-11T05:36:00.131Z,76.20
2022-08-11T05:38:32.121Z,75.00
2022-08-11T05:41:15.343Z,83.10
2022-08-11T05:44:20.074Z,81.10
2022-08-11T05:47:03.430Z,73.70
2022-08-11T05:49:48.286Z,78.80
2022-08-11T05:52:32.204Z,92.20
2022-08-11T05:55:20.198Z,91.90
2022-08-11T05:57:51.998Z,90.30
2022-08-11T06:00:24.265Z,91.60
2022-08-11T06:02:56.570Z,88.70
2022-08-11T06:05:38.472Z,72.40
2022-08-11T06:08:15.295Z,72.00
2022-08-11T06:10:49.242Z,71.30
2022-08-11T06:13:19.390Z,72.00
2022-08-11T06:15:52.000Z,71.20
2022-08-11T06:18:22.777Z,70.40
2022-08-11T06:20:54.936Z,91.00
2022-08-11T06:23:27.095Z,70.00
2022-08-11T06:26:01.560Z,76.10
2022-08-11T06:28:36.525Z,69.90
2022-08-11T06:33:43.993Z,68.50
2022-08-11T06:36:20.180Z,71.60
2022-08-11T06:39:03.423Z,86.70
2022-08-11T06:41:43.491Z,66.00
2022-08-11T06:44:21.532Z,85.00
2022-08-11T06:46:56.062Z,84.70
2022-08-11T06:49:56.859Z,65.80
2022-08-11T06:52:36.245Z,64.30
2022-08-11T06:55:56.568Z,83.80
2022-08-11T06:58:17.252Z,65.00
2022-08-11T07:00:48.846Z,62.90
2022-08-11T07:03:22.848Z,65.00
2022-08-11T07:05:56.817Z,61.70
2022-08-11T07:09:10.522Z,60.90
2022-08-11T07:12:21.448Z,80.30
2022-08-11T07:15:10.467Z,60.10
2022-08-11T07:17:49.914Z,77.60
2022-08-11T07:20:33.859Z,59.20
2022-08-11T07:23:18.903Z,58.80
2022-08-11T07:26:05.693Z,68.50
2022-08-11T07:28:50.207Z,58.10
2022-08-11T07:31:32.094Z,58.90
2022-08-11T07:34:17.938Z,57.20
2022-08-11T07:36:53.257Z,57.50
2022-08-11T07:39:25.289Z,74.40
2022-08-11T07:41:57.243Z,71.60
2022-08-11T07:44:34.274Z,70.80
2022-08-11T07:47:20.585Z,68.30
2022-08-11T07:50:07.227Z,56.10
2022-08-11T07:52:40.771Z,72.30
2022-08-11T07:55:11.837Z,55.90
2022-08-11T07:58:15.370Z,72.90
2022-08-11T08:01:01.246Z,72.40
2022-08-11T08:03:54.134Z,57.40
2022-08-11T08:06:38.169Z,54.40
2022-08-11T08:09:22.209Z,54.80
2022-08-11T08:12:04.640Z,54.80
2022-08-11T08:14:47.938Z,54.20
2022-08-11T08:20:03.920Z,68.80
2022-08-11T08:27:43.634Z,49.90
2022-08-11T08:35:34.154Z,47.10
2022-08-11T08:43:11.001Z,46.70
2022-08-11T08:45:42.902Z,46.00
2022-08-11T08:48:17.400Z,46.30
2022-08-11T08:53:38.577Z,45.80
2022-08-11T08:56:28.338Z,45.20
2022-08-11T08:59:02.068Z,46.30
2022-08-11T09:01:33.196Z,46.40
2022-08-11T09:04:11.169Z,45.80
2022-08-11T09:06:48.813Z,44.20
2022-08-11T09:09:24.686Z,43.70
2022-08-11T09:14:48.356Z,42.70
2022-08-11T09:22:45.792Z,43.20
2022-08-11T09:27:59.541Z,54.20
2022-08-11T09:30:30.433Z,42.30
2022-08-11T09:33:02.351Z,42.10
2022-08-11T09:35:36.825Z,41.70
2022-08-11T09:38:22.706Z,42.60
2022-08-11T09:40:57.097Z,41.70
2022-08-11T09:43:41.222Z,41.60
2022-08-11T09:46:12.628Z,49.90
2022-08-11T09:48:46.158Z,40.50
2022-08-11T09:51:16.296Z,40.40
2022-08-11T09:54:02.873Z,40.10
2022-08-11T09:56:47.894Z,40.20
2022-08-11T09:59:20.679Z,50.00
2022-08-11T10:01:55.216Z,39.20
2022-08-11T10:04:32.952Z,38.90
2022-08-11T10:07:04.178Z,38.40
2022-08-11T10:09:42.534Z,38.80
2022-08-11T10:12:17.162Z,38.60
2022-08-11T10:15:01.826Z,39.10
2022-08-11T10:17:35.845Z,38.80
2022-08-11T10:22:51.412Z,37.10
2022-08-11T10:25:37.226Z,37.80
2022-08-11T10:28:30.740Z,38.20
2022-08-11T10:31:14.277Z,38.00
2022-08-11T10:34:00.810Z,45.50
2022-08-11T10:36:33.859Z,37.50
2022-08-11T10:39:06.031Z,36.80
2022-08-11T10:42:06.536Z,36.00
2022-08-11T10:44:42.786Z,43.70
2022-08-11T10:47:28.831Z,43.10
2022-08-11T10:52:55.939Z,37.50
2022-08-11T10:58:24.671Z,34.90
2022-08-11T11:06:13.988Z,32.10
2022-08-11T11:11:51.011Z,31.50
2022-08-11T11:17:41.629Z,31.20
2022-08-11T11:26:06.716Z,32.40
2022-08-11T11:29:09.658Z,31.20
2022-08-11T11:42:03.146Z,31.90
2022-08-11T11:47:07.405Z,30.80
2022-08-11T11:49:39.531Z,30.90
2022-08-11T11:52:10.926Z,31.30
2022-08-11T11:54:42.190Z,28.70
2022-08-11T12:02:43.786Z,29.10
2022-08-11T12:05:14.744Z,30.50
2022-08-11T12:08:10.487Z,29.10
2022-08-11T12:10:45.780Z,31.90
2022-08-11T12:13:28.843Z,29.20
2022-08-11T12:16:33.760Z,29.50
2022-08-11T12:18:59.669Z,29.10
2022-08-11T12:21:31.145Z,33.50
2022-08-11T12:24:17.054Z,29.40
2022-08-11T12:37:32.299Z,30.30
2022-08-11T12:40:43.549Z,30.60
2022-08-11T12:43:38.592Z,29.30
2022-08-11T12:46:11.876Z,28.20
2022-08-11T12:49:02.475Z,28.60
2022-08-11T12:52:12.110Z,28.30
2022-08-11T13:00:21.623Z,28.60
2022-08-11T13:08:19.259Z,28.20
2022-08-11T13:11:04.815Z,28.30
2022-08-11T13:13:52.575Z,28.50
2022-08-11T13:24:03.139Z,29.20
2022-08-11T13:26:47.763Z,28.00
2022-08-11T13:29:22.736Z,32.40
2022-08-11T13:31:54.152Z,27.30
2022-08-11T13:36:57.631Z,27.50
2022-08-11T13:39:32.971Z,27.60
2022-08-11T13:44:37.523Z,28.60
2022-08-11T13:49:42.631Z,27.80
2022-08-11T13:54:49.712Z,28.30
2022-08-11T14:00:24.948Z,31.20
2022-08-11T14:02:59.632Z,28.00
2022-08-11T14:05:33.905Z,28.40
2022-08-11T14:08:07.104Z,28.00
2022-08-11T14:10:41.881Z,28.20
2022-08-11T14:13:26.490Z,33.40
2022-08-11T14:16:02.118Z,29.20
2022-08-11T14:18:34.433Z,35.00
2022-08-11T14:21:20.009Z,29.00
2022-08-11T14:23:55.121Z,34.00
2022-08-11T14:26:29.156Z,28.90
2022-08-11T14:29:02.787Z,29.40
2022-08-11T14:34:10.412Z,29.40
2022-08-11T14:36:42.573Z,29.40
2022-08-11T14:39:18.150Z,33.90
2022-08-11T14:42:12.197Z,35.30
2022-08-11T14:45:00.235Z,35.10
2022-08-11T14:47:32.125Z,36.10
2022-08-11T14:50:11.764Z,29.40
2022-08-11T14:52:48.319Z,34.40
2022-08-11T14:55:31.133Z,34.70
2022-08-11T14:58:04.439Z,29.50
2022-08-11T15:00:36.791Z,29.40
2022-08-11T15:03:12.216Z,32.50
2022-08-11T15:05:56.717Z,35.40
2022-08-11T15:08:43.663Z,29.90
2022-08-11T15:11:28.274Z,35.60
2022-08-11T15:14:03.162Z,30.20
2022-08-11T15:16:46.373Z,36.50
2022-08-11T15:19:17.264Z,30.90
2022-08-11T15:21:59.705Z,37.00
2022-08-11T15:24:30.716Z,37.10
2022-08-11T15:27:15.917Z,36.70
2022-08-11T15:30:02.719Z,37.10
2022-08-11T15:32:47.480Z,31.30
2022-08-11T15:35:33.691Z,31.20
2022-08-11T15:40:57.772Z,37.70
2022-08-11T15:43:44.827Z,37.80
2022-08-11T15:46:22.719Z,32.20
2022-08-11T15:49:00.699Z,38.30
2022-08-11T15:51:37.145Z,38.60
2022-08-11T15:54:11.388Z,32.70
2022-08-11T15:56:45.601Z,33.40
2022-08-11T15:59:43.261Z,33.20
2022-08-11T16:02:30.838Z,34.30
2022-08-11T16:05:02.343Z,39.50
2022-08-11T16:07:39.127Z,36.80
2022-08-11T16:10:18.704Z,33.90
2022-08-11T16:13:21.957Z,40.30
2022-08-11T16:18:43.993Z,34.60
2022-08-11T16:21:26.059Z,35.10
2022-08-11T16:25:57.848Z,34.80
2022-08-11T16:27:09.615Z,41.80
2022-08-11T16:29:46.574Z,41.70
2022-08-11T16:32:20.691Z,35.30
2022-08-11T16:35:12.635Z,36.50
2022-08-11T16:37:56.830Z,35.40
2022-08-11T16:40:27.950Z,35.50
2022-08-11T16:45:56.260Z,41.10
2022-08-11T16:48:35.227Z,36.90
2022-08-11T16:51:13.230Z,37.00
2022-08-11T16:56:39.508Z,36.70
2022-08-11T16:59:15.480Z,37.20
2022-08-11T17:01:48.741Z,37.20
2022-08-11T17:04:41.883Z,37.10
2022-08-11T17:07:40.287Z,37.40
2022-08-11T17:10:39.171Z,45.20
2022-08-11T17:13:26.634Z,37.60
2022-08-11T17:16:12.772Z,45.30
2022-08-11T17:18:58.414Z,45.30
2022-08-11T17:21:33.793Z,44.00
2022-08-11T17:24:09.050Z,37.40
2022-08-11T17:26:59.734Z,37.70
2022-08-11T17:32:17.743Z,38.50
2022-08-11T17:35:02.419Z,38.90
2022-08-11T17:37:34.838Z,39.50
2022-08-11T17:40:10.344Z,39.80
2022-08-11T17:42:54.072Z,40.20
2022-08-11T17:45:38.233Z,40.40
2022-08-11T17:59:14.370Z,41.40
2022-08-11T18:06:51.243Z,45.80
2022-08-11T18:12:22.978Z,42.30
2022-08-11T18:15:08.511Z,48.00
2022-08-11T18:17:51.986Z,49.60
2022-08-11T18:23:20.406Z,43.20
2022-08-11T18:26:06.387Z,47.20
2022-08-11T18:29:00.725Z,50.10
2022-08-11T18:31:44.437Z,50.60
2022-08-11T18:34:31.537Z,44.50
2022-08-11T18:37:19.582Z,52.10
2022-08-11T18:40:12.329Z,51.70
2022-08-11T18:42:57.100Z,45.00
2022-08-11T18:45:45.772Z,52.10
2022-08-11T18:48:33.932Z,47.00
2022-08-11T18:51:31.248Z,52.90
2022-08-11T18:54:26.757Z,46.60
2022-08-11T18:57:12.797Z,46.90
2022-08-11T18:59:58.522Z,47.30
2022-08-11T19:02:48.530Z,54.90
2022-08-11T19:06:05.924Z,55.20
2022-08-11T19:08:38.322Z,48.30
2022-08-11T19:11:23.545Z,48.40
2022-08-11T19:14:07.473Z,52.50
2022-08-11T19:16:51.921Z,48.90
2022-08-11T19:19:38.762Z,51.00
2022-08-11T19:22:23.931Z,49.20
2022-08-11T19:25:08.300Z,49.30
2022-08-11T19:27:55.381Z,56.60
2022-08-11T19:33:59.881Z,49.30
2022-08-11T19:36:30.205Z,49.40
2022-08-11T19:39:13.614Z,49.50
2022-08-11T19:41:58.008Z,49.90
2022-08-11T19:44:41.980Z,58.40
2022-08-11T19:50:09.361Z,59.10
2022-08-11T19:52:56.873Z,59.20
2022-08-11T19:55:41.230Z,50.70
2022-08-11T20:06:33.489Z,51.10
2022-08-11T20:12:07.109Z,54.10
2022-08-11T20:14:52.601Z,59.70
2022-08-11T20:17:39.094Z,55.70
2022-08-11T20:20:24.032Z,61.00
2022-08-11T20:23:09.046Z,61.10
2022-08-11T20:26:03.425Z,62.00
2022-08-11T20:28:52.337Z,52.80
2022-08-11T20:31:37.037Z,52.90
2022-08-11T20:34:20.727Z,62.80
2022-08-11T20:37:04.780Z,63.60
2022-08-11T20:39:48.328Z,53.60
2022-08-11T20:42:35.355Z,53.60
2022-08-11T20:45:20.217Z,54.10
2022-08-11T20:48:09.194Z,66.10
2022-08-11T20:50:58.218Z,54.40
2022-08-11T20:53:41.820Z,68.50
2022-08-11T20:56:28.227Z,55.20
2022-08-11T20:59:18.432Z,59.80
2022-08-11T21:02:03.274Z,56.50
2022-08-11T21:07:41.383Z,55.60
2022-08-11T21:10:27.079Z,55.80
2022-08-11T21:13:24.059Z,59.10
2022-08-11T21:16:26.427Z,56.30
2022-08-11T21:19:14.568Z,61.40
2022-08-11T21:21:58.040Z,56.70
2022-08-11T21:24:42.959Z,67.90
2022-08-11T21:27:33.356Z,57.10
2022-08-11T21:30:17.347Z,70.40
2022-08-11T21:33:02.493Z,57.40
2022-08-11T21:35:46.183Z,70.30
2022-08-11T21:38:30.165Z,57.70
2022-08-11T21:41:15.397Z,57.80
2022-08-11T21:43:58.820Z,71.20
2022-08-11T21:46:42.281Z,72.10
2022-08-11T21:49:29.142Z,58.20
2022-08-11T21:52:11.732Z,73.60
2022-08-11T21:57:47.700Z,58.60
2022-08-11T22:00:31.266Z,58.70
2022-08-11T22:03:14.528Z,58.80
2022-08-11T22:06:01.280Z,73.30
2022-08-11T22:08:44.109Z,63.60
2022-08-11T22:11:32.037Z,69.60
2022-08-11T22:14:15.765Z,74.00
2022-08-11T22:19:41.184Z,59.50
2022-08-11T22:22:28.036Z,72.50
2022-08-11T22:25:16.478Z,70.00
2022-08-11T22:28:01.334Z,73.40
2022-08-11T22:30:43.980Z,73.80
2022-08-11T22:33:28.863Z,60.20
2022-08-11T22:36:12.946Z,61.80
2022-08-11T22:39:00.697Z,59.80
2022-08-11T22:41:43.768Z,73.70
2022-08-11T22:44:26.591Z,73.90
2022-08-11T22:47:11.853Z,65.80
2022-08-11T22:49:57.526Z,74.00
2022-08-11T22:52:42.040Z,60.40
2022-08-11T23:03:38.704Z,61.30
2022-08-11T23:12:06.355Z,61.50
2022-08-11T23:14:51.574Z,66.10
2022-08-11T23:20:29.392Z,68.20
2022-08-11T23:23:16.440Z,62.60
2022-08-11T23:28:47.613Z,62.90
2022-08-11T23:31:50.368Z,62.90
